Glenwood, MN

2:39 PM CDT on July 28, 2014 (GMT -0500)
Glenwood Municipal (KGHW) Elev 1394 ft | 45.64 °N, 95.32 °W | Change Station

Current weather conditions updated 5 minutes ago

Mostly Cloudy
Mostly Cloudy
70 °F
Feels Like 70 °F
N
9
Wind Variable Wind from NNW

Today is forecast to be nearly the same temperature as yesterday.

Today
High -- | Low -- °F
--% Chance of Precip.
Yesterday
High -- | Low -- °F
Precip. -- in
6:00 AM 8:54 PM
Waxing Crescent, 3% visible
Pressure 30.24 in
Visibility 10.0 miles
Clouds Mostly Cloudy 6500 ft
Dew Point 54 °F
Humidity 56%
Rainfall 0.00 in
Snow Depth Not available.
UV 5 out of 12
Pollen 6.40 out of 12
Air Quality Not available.
Flu Activity Not available.
METAR KGHW 281934Z AUTO 34008KT 10SM BKN065 21/12 A3024 RMK AO2

More Conditions Fewer Conditions

Pressure 30.24 in
Visibility 10.0 miles
Clouds Mostly Cloudy 6500 ft
Dew Point 54 °F
Humidity 56%
Rainfall 0.00 in
Snow Depth Not available.
UV 5 out of 12
Pollen 6.40 out of 12
Air Quality Not available.
Flu Activity Not available.
METAR KGHW 281934Z AUTO 34008KT 10SM BKN065 21/12 A3024 RMK AO2

More Conditions Fewer Conditions

10-Day Weather Forecast

Almanac

Astronomy

Jul. 28, 2014 Rise Set
Actual Time 6:00 AM CDT 8:54 PM CDT
Civil Twilight 5:25 AM CDT 9:29 PM CDT
Nautical Twilight 4:41 AM CDT 10:13 PM CDT
Astronomical Twilight 3:48 AM CDT 11:05 PM CDT
Moon 7:51 AM CDT 9:27 PM CDT
Length of Visible Light 16h 03m
Length of Day
14h 54m
Tomorrow will be 2m 20s shorter.
Waxing Crescent, 3% of the Moon is Illuminated
Today
Waxing Crescent
Aug 3
First Quarter
Aug 10
Full
Aug 17
Last Quarter
Aug 25
New

Today's Extremes

State Highs State Lows

Community

WunderPhotos

Upload Photos

1,738,467 photos uploaded!

Nearby

Snow Depth

Station Depth Elevation
No new snow has been reported.

Earthquake Activity

City Distance Mag. Time & Date
No recent earthquake activity has been reported nearby.
Minimum magnitude displayed is 2.5.

Coastal Water Temperatures

Place Temperature
No Stations Reporting

Nearby Weather Stations

Station Location Temp. Heat Index Dew Point Humidity Wind Precip. Elev Updated Type
KMGK (Magic 107.1) FM, Glenwood, MN 71.3 °F 76 °F 56 °F 59% West  at  6.0 mph 0.00 in / hr 1168 ft 2:39 PM CDT Rapid Fire
Sauk Centre, Sauk Centre, MN 76.1 °F 78 °F 56 °F 49% North  at  4.5 mph 0.00 in / hr 1253 ft 2:39 PM CDT Rapid Fire
Hoffman MN, Hoffman, MN 73.9 °F 77 °F 56 °F 54% NNW  at  7.6 mph 0.00 in / hr 1240 ft 2:38 PM CDT Normal

Show More Stations Show Fewer Stations